Time;durP1;ratioP1;P1;durP2;ratioP2;P2;SDS_P1;SDS_P2;PMS_P1;PMS_P2;Temp;Humidity;BMP_temperature;BMP_pressure;BME280_temperature;BME280_humidity;BME280_pressure;Samples;Min_cycle;Max_cycle;Signal;HPM_P1;HPM_P2
2022/11/09 00:01:37;;;;;;;0.28;0.28;;;;;;;15.36;64.67;100450.66;5020805;28;20017;-77
2022/11/09 00:04:04;;;;;;;0.03;0.03;;;;;;;15.40;64.68;100449.56;5020802;28;20033;-77
2022/11/09 00:06:32;;;;;;;0.10;0.10;;;;;;;15.42;64.49;100461.06;5030184;28;20048;-77
2022/11/09 00:09:00;;;;;;;0.10;0.10;;;;;;;15.42;64.40;100460.19;5033362;28;20071;-78
2022/11/09 00:11:26;;;;;;;0.10;0.10;;;;;;;15.34;64.48;100457.88;5026980;28;20444;-77
2022/11/09 00:13:52;;;;;;;0.10;0.10;;;;;;;15.43;63.97;100460.13;5029923;28;20040;-77
2022/11/09 00:16:21;;;;;;;0.10;0.10;;;;;;;15.39;64.11;100474.56;5025664;28;20026;-78
2022/11/09 00:18:47;;;;;;;0.10;0.10;;;;;;;15.39;64.03;100458.53;5035766;28;20116;-77
2022/11/09 00:21:16;;;;;;;0.13;0.13;;;;;;;15.37;63.88;100458.59;5033012;28;20287;-77
2022/11/09 00:23:42;;;;;;;0.20;0.20;;;;;;;15.29;63.70;100455.41;5035075;28;20065;-77
2022/11/09 00:26:10;;;;;;;0.10;0.10;;;;;;;15.19;64.14;100465.66;5030723;28;20378;-77
2022/11/09 00:28:37;;;;;;;0.10;0.10;;;;;;;15.01;64.26;100454.00;5030064;28;20038;-77
2022/11/09 00:31:06;;;;;;;0.10;0.10;;;;;;;14.96;64.41;100460.47;5032653;28;20024;-77
2022/11/09 00:33:32;;;;;;;0.43;0.38;;;;;;;15.00;64.18;100451.41;5030904;28;20098;-76
2022/11/09 00:36:01;;;;;;;0.10;0.10;;;;;;;14.96;64.16;100457.81;5033242;28;20446;-77
2022/11/09 00:38:27;;;;;;;0.00;0.00;;;;;;;14.91;64.37;100462.50;5032451;28;20497;-77
2022/11/09 00:40:58;;;;;;;0.10;0.10;;;;;;;14.87;64.54;100451.94;5030187;28;20044;-77
2022/11/09 00:43:24;;;;;;;1.58;1.48;;;;;;;14.88;64.30;100455.50;5031052;28;20037;-77
2022/11/09 00:45:50;;;;;;;0.10;0.10;;;;;;;14.85;64.35;100455.63;5039544;28;20037;-76
2022/11/09 00:48:16;;;;;;;0.10;0.10;;;;;;;14.86;64.49;100458.19;5037172;28;20033;-77
2022/11/09 00:50:50;;;;;;;0.10;0.10;;;;;;;14.87;64.13;100462.59;5037605;28;20369;-77
2022/11/09 00:53:17;;;;;;;0.10;0.10;;;;;;;14.80;64.22;100463.81;5036490;28;20018;-76
2022/11/09 00:55:51;;;;;;;0.10;0.10;;;;;;;14.73;64.50;100470.38;5035564;28;20079;-78
2022/11/09 00:58:17;;;;;;;0.43;0.40;;;;;;;14.76;64.39;100464.88;5037505;28;20033;-77
2022/11/09 01:00:43;;;;;;;0.10;0.10;;;;;;;14.71;64.42;100465.06;5033444;28;20032;-77
2022/11/09 01:03:10;;;;;;;0.10;0.10;;;;;;;14.69;64.33;100458.97;5034486;28;20389;-77
2022/11/09 01:05:39;;;;;;;0.17;0.17;;;;;;;14.68;64.48;100459.03;5038370;28;20087;-77
2022/11/09 01:08:05;;;;;;;0.10;0.10;;;;;;;14.64;64.47;100460.03;5038250;28;20484;-77
2022/11/09 01:10:31;;;;;;;0.10;0.10;;;;;;;14.59;64.46;100462.06;5036935;28;20038;-77
2022/11/09 01:12:58;;;;;;;0.10;0.10;;;;;;;14.55;64.56;100459.53;5033416;28;20021;-77
2022/11/09 01:15:24;;;;;;;0.20;0.20;;;;;;;14.62;64.22;100464.59;5039198;28;20051;-77
2022/11/09 01:17:51;;;;;;;0.10;0.10;;;;;;;14.56;64.37;100468.38;5032383;28;20031;-76
2022/11/09 01:20:17;;;;;;;0.57;0.57;;;;;;;14.60;64.40;100471.78;5027817;28;20076;-77
2022/11/09 01:22:43;;;;;;;0.28;0.28;;;;;;;14.55;64.42;100470.19;5021927;28;20030;-77
2022/11/09 01:25:09;;;;;;;0.10;0.10;;;;;;;14.52;64.42;100466.78;5021004;28;20034;-77
2022/11/09 01:27:36;;;;;;;0.10;0.10;;;;;;;14.61;64.36;100465.53;5023137;28;20089;-77
2022/11/09 01:30:02;;;;;;;1.00;1.00;;;;;;;14.61;64.28;100470.84;5023122;28;20690;-77
2022/11/09 01:32:31;;;;;;;0.10;0.10;;;;;;;14.62;64.42;100468.13;5029878;28;20030;-78
2022/11/09 01:34:57;;;;;;;0.10;0.10;;;;;;;14.57;64.50;100473.63;5022976;28;20040;-77
2022/11/09 01:37:23;;;;;;;1.20;1.20;;;;;;;14.65;64.53;100473.34;5022731;28;20508;-77
2022/11/09 01:39:49;;;;;;;0.10;0.10;;;;;;;14.70;64.51;100475.81;5022476;28;20051;-78
2022/11/09 01:42:23;;;;;;;0.57;0.57;;;;;;;14.68;64.53;100478.56;5026095;28;20046;-77
2022/11/09 01:47:58;;;;;;;4.78;2.10;;;;;;;14.77;64.70;100485.28;5051720;28;20369;-77
2022/11/09 01:50:35;;;;;;;0.10;0.10;;;;;;;14.69;64.59;100479.41;5040488;28;20060;-77
2022/11/09 01:53:04;;;;;;;0.10;0.10;;;;;;;14.72;64.55;100463.28;5043011;28;20485;-78
2022/11/09 01:55:30;;;;;;;0.38;0.38;;;;;;;14.70;64.67;100462.47;5027481;28;20568;-77
2022/11/09 01:58:05;;;;;;;0.10;0.10;;;;;;;14.69;64.67;100466.06;5036535;28;20029;-78
2022/11/09 02:00:33;;;;;;;0.10;0.10;;;;;;;14.67;64.56;100466.16;5031835;28;20099;-77
2022/11/09 02:03:04;;;;;;;0.10;0.10;;;;;;;14.68;64.69;100473.22;5032769;28;20021;-78
2022/11/09 02:05:33;;;;;;;0.10;0.10;;;;;;;14.67;64.65;100474.16;5035624;28;20017;-77
2022/11/09 02:08:03;;;;;;;0.10;0.10;;;;;;;14.71;64.72;100467.75;5040104;28;20030;-78
2022/11/09 02:10:54;;;;;;;0.03;0.03;;;;;;;14.72;64.72;100469.47;5029215;28;20440;-78
2022/11/09 02:13:23;;;;;;;0.03;0.03;;;;;;;14.69;64.78;100474.06;5037477;28;20040;-78
2022/11/09 02:15:50;;;;;;;0.00;0.00;;;;;;;14.70;64.88;100473.16;5042929;28;20021;-78
2022/11/09 02:18:18;;;;;;;0.10;0.10;;;;;;;14.71;64.77;100465.06;5042043;28;20164;-78
2022/11/09 02:23:25;;;;;;;0.10;0.10;;;;;;;14.57;65.28;100481.63;5064699;27;20395;-78
2022/11/09 02:25:57;;;;;;;0.10;0.10;;;;;;;14.66;65.32;100487.56;5063179;27;20029;-77
2022/11/09 02:28:25;;;;;;;0.10;0.10;;;;;;;14.60;65.52;100474.44;5056659;28;20021;-77
2022/11/09 02:30:54;;;;;;;0.17;0.17;;;;;;;14.56;65.48;100482.56;5051661;27;20456;-77
2022/11/09 02:33:20;;;;;;;0.10;0.10;;;;;;;14.57;65.54;100494.97;5058563;28;20021;-78
2022/11/09 02:35:47;;;;;;;0.10;0.10;;;;;;;14.56;65.57;100505.69;5061795;28;20033;-77
2022/11/09 02:38:14;;;;;;;0.10;0.10;;;;;;;14.52;66.17;100509.44;5056546;28;20029;-78
2022/11/09 02:40:44;;;;;;;0.10;0.10;;;;;;;14.52;66.14;100494.31;5056990;27;20037;-78
2022/11/09 02:43:13;;;;;;;0.43;0.43;;;;;;;14.50;66.00;100501.47;5060255;28;20035;-78
2022/11/09 02:45:39;;;;;;;0.10;0.10;;;;;;;14.47;66.40;100493.63;5047794;27;20036;-77
2022/11/09 02:48:05;;;;;;;0.10;0.10;;;;;;;14.37;66.85;100489.63;5061434;28;20117;-77
2022/11/09 02:50:32;;;;;;;0.10;0.10;;;;;;;14.36;66.89;100482.56;5052377;27;20387;-77
2022/11/09 02:52:58;;;;;;;0.10;0.10;;;;;;;14.33;67.00;100488.00;5057822;28;20052;-78
2022/11/09 02:55:24;;;;;;;0.05;0.05;;;;;;;14.34;66.84;100484.41;5061532;27;20029;-78
2022/11/09 02:57:50;;;;;;;9.50;0.85;;;;;;;14.28;67.09;100485.53;5057824;28;20045;-78
2022/11/09 03:00:16;;;;;;;0.10;0.10;;;;;;;14.26;67.27;100489.19;5053610;28;20040;-77
2022/11/09 03:02:43;;;;;;;1.15;1.00;;;;;;;14.24;67.17;100481.25;5056554;27;20085;-78
2022/11/09 03:05:09;;;;;;;0.10;0.10;;;;;;;14.18;67.42;100489.50;5053123;28;20036;-78
2022/11/09 03:07:35;;;;;;;0.65;0.65;;;;;;;14.21;67.37;100484.91;5054738;28;20037;-76
2022/11/09 03:10:01;;;;;;;0.17;0.17;;;;;;;14.11;67.69;100482.69;5055873;27;20131;-77
2022/11/09 03:12:28;;;;;;;0.10;0.10;;;;;;;14.10;67.74;100487.16;5057576;28;20028;-77
2022/11/09 03:14:56;;;;;;;0.10;0.10;;;;;;;14.03;67.83;100486.53;5059652;28;20025;-77
2022/11/09 03:17:22;;;;;;;0.10;0.10;;;;;;;14.08;67.48;100505.88;5057023;28;20029;-77
2022/11/09 03:19:48;;;;;;;0.10;0.10;;;;;;;14.07;67.35;100501.47;5056805;28;20040;-77
2022/11/09 03:22:14;;;;;;;0.17;0.17;;;;;;;14.05;67.39;100513.09;5055486;28;20426;-77
2022/11/09 03:24:40;;;;;;;0.10;0.10;;;;;;;14.06;67.34;100514.84;5058716;28;20532;-77
2022/11/09 03:27:06;;;;;;;0.10;0.10;;;;;;;13.98;67.76;100524.94;5052442;28;20025;-77
2022/11/09 03:29:33;;;;;;;0.10;0.10;;;;;;;14.03;67.45;100528.28;5054938;28;20020;-77
2022/11/09 03:31:59;;;;;;;0.03;0.03;;;;;;;14.00;67.13;100517.75;5056435;28;20097;-78
2022/11/09 03:34:25;;;;;;;0.10;0.10;;;;;;;13.94;67.54;100523.31;5038299;28;20109;-77
2022/11/09 03:36:52;;;;;;;0.10;0.10;;;;;;;13.93;67.67;100522.44;5044055;28;20488;-77
2022/11/09 03:39:18;;;;;;;0.10;0.10;;;;;;;13.91;67.16;100530.50;5039721;28;20031;-76
2022/11/09 03:41:44;;;;;;;0.00;0.00;;;;;;;13.79;67.60;100536.28;5035686;28;20036;-77
2022/11/09 03:44:10;;;;;;;0.10;0.10;;;;;;;13.77;67.89;100538.16;5039845;28;20029;-77
2022/11/09 03:46:36;;;;;;;0.10;0.10;;;;;;;13.77;67.92;100538.16;5045444;28;20043;-77
2022/11/09 03:49:02;;;;;;;0.10;0.10;;;;;;;13.80;67.76;100547.81;5045226;28;20036;-77
2022/11/09 03:51:28;;;;;;;0.10;0.10;;;;;;;13.73;68.08;100548.06;5036805;28;20052;-77
2022/11/09 03:53:54;;;;;;;0.10;0.10;;;;;;;13.71;67.82;100557.03;5037115;28;20035;-76
2022/11/09 03:56:20;;;;;;;0.10;0.10;;;;;;;13.66;67.92;100556.34;5039431;28;20037;-77
2022/11/09 03:58:47;;;;;;;0.20;0.20;;;;;;;13.59;68.64;100556.56;5046667;28;20029;-78
2022/11/09 04:01:13;;;;;;;0.10;0.10;;;;;;;13.63;67.98;100562.63;5043179;28;20077;-77
2022/11/09 04:03:39;;;;;;;0.22;0.22;;;;;;;13.65;68.10;100559.94;5040812;28;20057;-77
2022/11/09 04:06:05;;;;;;;0.10;0.10;;;;;;;13.65;68.29;100562.59;5038190;28;20044;-77
2022/11/09 04:08:31;;;;;;;0.10;0.10;;;;;;;13.62;68.20;100570.66;5039802;27;20032;-76
2022/11/09 04:10:57;;;;;;;0.10;0.10;;;;;;;13.62;68.24;100562.69;5044323;27;20032;-78
2022/11/09 04:13:24;;;;;;;0.10;0.10;;;;;;;13.57;68.52;100561.06;5038149;28;20029;-77
2022/11/09 04:15:50;;;;;;;0.10;0.10;;;;;;;13.54;68.61;100569.16;5040455;28;20032;-78
2022/11/09 04:18:16;;;;;;;0.35;0.35;;;;;;;13.53;68.26;100566.56;5039623;28;20112;-77
2022/11/09 04:20:42;;;;;;;0.20;0.20;;;;;;;13.66;68.05;100561.66;5042634;28;20162;-77
2022/11/09 04:23:11;;;;;;;0.10;0.10;;;;;;;13.69;67.80;100562.38;5041923;28;20103;-77
2022/11/09 04:25:39;;;;;;;0.03;0.03;;;;;;;13.72;67.61;100564.06;5038056;28;20043;-77
2022/11/09 04:28:07;;;;;;;0.30;0.30;;;;;;;13.75;67.74;100569.28;5039533;28;20022;-77
2022/11/09 04:30:35;;;;;;;0.08;0.08;;;;;;;13.76;67.72;100568.38;5039818;28;20021;-77
2022/11/09 04:33:02;;;;;;;0.10;0.10;;;;;;;13.78;67.71;100576.28;5043285;28;20036;-76
2022/11/09 04:35:31;;;;;;;0.10;0.10;;;;;;;13.79;67.67;100578.91;5038656;28;20056;-77
2022/11/09 04:38:00;;;;;;;0.10;0.10;;;;;;;13.82;66.87;100573.47;5037857;28;20485;-77
2022/11/09 04:40:28;;;;;;;0.15;0.15;;;;;;;13.82;67.24;100567.25;5038490;27;20565;-77
2022/11/09 04:42:55;;;;;;;0.95;0.95;;;;;;;13.83;66.64;100558.34;5039644;28;20108;-78
2022/11/09 04:45:21;;;;;;;0.10;0.10;;;;;;;13.78;66.74;100571.81;5044428;28;20041;-77
2022/11/09 04:47:47;;;;;;;0.45;0.45;;;;;;;13.76;67.09;100579.03;5038305;28;20086;-77
2022/11/09 04:50:14;;;;;;;0.05;0.05;;;;;;;13.68;67.32;100570.44;5039249;28;20061;-77
2022/11/09 04:52:40;;;;;;;0.00;0.00;;;;;;;13.68;67.41;100581.97;5036276;28;20109;-77
2022/11/09 04:55:07;;;;;;;0.10;0.10;;;;;;;13.69;67.17;100580.19;5034132;28;20041;-76
2022/11/09 04:57:33;;;;;;;0.10;0.10;;;;;;;13.72;67.08;100588.91;5034015;28;20071;-77
2022/11/09 04:59:59;;;;;;;0.10;0.10;;;;;;;13.78;66.94;100589.59;5036668;28;20048;-77
2022/11/09 05:02:25;;;;;;;0.20;0.20;;;;;;;13.83;66.82;100585.88;5042444;28;20029;-76
2022/11/09 05:04:51;;;;;;;0.10;0.10;;;;;;;13.84;67.31;100584.91;5043427;28;20082;-77
2022/11/09 05:07:17;;;;;;;0.10;0.10;;;;;;;13.85;67.28;100584.00;5046465;28;20085;-77
2022/11/09 05:09:43;;;;;;;0.10;0.10;;;;;;;13.88;66.97;100594.53;5045820;28;20034;-77
2022/11/09 05:12:11;;;;;;;0.10;0.10;;;;;;;13.93;67.15;100585.50;5039740;28;20044;-77
2022/11/09 05:14:37;;;;;;;0.10;0.10;;;;;;;13.93;67.44;100581.03;5040792;28;20045;-77
2022/11/09 05:17:03;;;;;;;0.10;0.10;;;;;;;13.93;67.64;100580.16;5045156;28;20053;-77
2022/11/09 05:19:29;;;;;;;0.10;0.10;;;;;;;13.83;67.57;100577.88;5047454;28;20052;-76
2022/11/09 05:21:55;;;;;;;0.10;0.10;;;;;;;13.75;67.76;100572.81;5042999;28;20377;-77
2022/11/09 05:24:21;;;;;;;0.10;0.10;;;;;;;13.74;68.10;100570.22;5039858;28;20065;-77
2022/11/09 05:26:47;;;;;;;0.10;0.10;;;;;;;13.66;68.34;100573.16;5028855;27;20034;-77
2022/11/09 05:29:13;;;;;;;0.95;0.95;;;;;;;13.49;69.05;100579.09;5026150;28;20512;-76
2022/11/09 05:31:41;;;;;;;0.10;0.10;;;;;;;13.48;68.60;100572.03;5030051;28;20572;-77
2022/11/09 05:34:11;;;;;;;0.10;0.10;;;;;;;13.45;68.33;100585.47;5028040;28;20060;-77
2022/11/09 05:36:37;;;;;;;0.10;0.10;;;;;;;13.42;68.31;100593.56;5029916;28;20032;-78
2022/11/09 05:39:03;;;;;;;0.10;0.10;;;;;;;13.36;68.85;100580.47;5029264;28;20033;-78
2022/11/09 05:41:29;;;;;;;0.10;0.10;;;;;;;13.35;68.71;100576.06;5031469;28;20045;-77
2022/11/09 05:43:55;;;;;;;0.10;0.10;;;;;;;13.18;69.37;100582.81;5037740;28;20033;-77
2022/11/09 05:46:21;;;;;;;0.00;0.00;;;;;;;13.22;69.39;100586.25;5034460;28;20029;-77
2022/11/09 05:48:47;;;;;;;0.25;0.25;;;;;;;13.20;69.58;100582.78;5028846;28;20081;-77
2022/11/09 05:51:14;;;;;;;0.10;0.10;;;;;;;13.20;69.52;100581.00;5026165;28;20031;-78
2022/11/09 05:53:40;;;;;;;0.70;0.70;;;;;;;13.18;69.13;100580.16;5029691;28;20057;-77
2022/11/09 05:56:09;;;;;;;0.10;0.10;;;;;;;13.13;69.87;100587.44;5028174;28;20037;-78
2022/11/09 05:58:37;;;;;;;0.10;0.10;;;;;;;13.10;69.74;100592.88;5035986;28;20059;-77
2022/11/09 06:01:06;;;;;;;0.10;0.10;;;;;;;13.09;69.83;100593.78;5032335;28;20609;-77
2022/11/09 06:03:32;;;;;;;0.10;0.10;;;;;;;13.08;70.10;100602.69;5024786;27;20066;-77
2022/11/09 06:06:07;;;;;;;0.10;0.10;;;;;;;13.06;70.39;100596.53;5037034;28;20031;-77
2022/11/09 06:08:33;;;;;;;0.10;0.10;;;;;;;13.08;70.06;100600.91;5029516;28;20412;-77
2022/11/09 06:11:02;;;;;;;0.10;0.10;;;;;;;13.00;70.58;100597.66;5034239;28;20485;-77
2022/11/09 06:13:28;;;;;;;0.10;0.10;;;;;;;13.06;70.24;100597.44;5031460;28;20038;-78
2022/11/09 06:15:56;;;;;;;0.10;0.10;;;;;;;13.09;70.52;100605.28;5039881;28;20492;-77
2022/11/09 06:18:24;;;;;;;0.20;0.20;;;;;;;13.07;70.37;100603.59;5036270;28;20033;-78
2022/11/09 06:20:52;;;;;;;0.13;0.13;;;;;;;13.12;70.58;100604.31;5031549;28;20022;-77
2022/11/09 06:23:18;;;;;;;0.00;0.00;;;;;;;13.12;70.23;100606.97;5028189;28;20549;-77
2022/11/09 06:25:49;;;;;;;0.10;0.10;;;;;;;13.15;70.15;100593.59;5036063;28;20021;-76
2022/11/09 06:28:15;;;;;;;0.10;0.10;;;;;;;13.13;70.55;100605.22;5029334;28;20033;-77
2022/11/09 06:30:41;;;;;;;1.00;0.90;;;;;;;13.07;70.28;100604.50;5039253;28;20036;-77
2022/11/09 06:33:07;;;;;;;0.10;0.10;;;;;;;13.07;70.33;100598.28;5033921;28;20032;-77
2022/11/09 06:35:34;;;;;;;0.10;0.10;;;;;;;13.09;69.93;100596.47;5032639;28;20036;-77
2022/11/09 06:38:00;;;;;;;0.10;0.10;;;;;;;13.10;70.39;100608.84;5044547;28;20048;-77
2022/11/09 06:40:27;;;;;;;0.43;0.43;;;;;;;13.12;70.23;100609.63;5028188;28;20044;-77
2022/11/09 06:42:57;;;;;;;0.10;0.10;;;;;;;13.17;70.71;100607.72;5029072;28;20071;-78
2022/11/09 06:45:24;;;;;;;0.10;0.10;;;;;;;13.20;70.47;100607.59;5038215;28;20042;-77
2022/11/09 06:47:50;;;;;;;0.10;0.10;;;;;;;13.18;70.91;100614.75;5033701;28;20492;-77
2022/11/09 06:50:16;;;;;;;0.80;0.75;;;;;;;13.18;70.63;100614.75;5029968;28;20592;-77
2022/11/09 06:52:42;;;;;;;0.08;0.08;;;;;;;13.18;70.51;100609.44;5034211;28;20025;-77
2022/11/09 06:55:08;;;;;;;0.10;0.10;;;;;;;13.20;70.67;100609.41;5031525;28;20038;-77
2022/11/09 06:57:35;;;;;;;2.15;0.63;;;;;;;13.16;71.16;100611.28;5021542;28;20025;-77
2022/11/09 07:00:01;;;;;;;0.10;0.10;;;;;;;13.23;70.67;100615.47;5037330;28;20404;-77
2022/11/09 07:02:27;;;;;;;0.10;0.10;;;;;;;13.19;70.84;100616.50;5033384;28;20034;-78
2022/11/09 07:04:53;;;;;;;0.10;0.10;;;;;;;13.20;70.40;100617.38;5031780;28;20036;-77
2022/11/09 07:07:19;;;;;;;0.10;0.10;;;;;;;13.20;70.61;100620.03;5040687;28;20037;-79
2022/11/09 07:09:46;;;;;;;0.10;0.10;;;;;;;13.17;70.65;100615.69;5032006;28;20039;-77
2022/11/09 07:12:12;;;;;;;0.10;0.10;;;;;;;13.16;70.72;100621.94;5031224;28;20777;-77
2022/11/09 07:14:38;;;;;;;0.20;0.20;;;;;;;13.19;70.89;100615.63;5034373;28;20029;-78
2022/11/09 07:17:04;;;;;;;0.10;0.10;;;;;;;13.14;70.97;100628.22;5033514;28;20073;-77
2022/11/09 07:19:30;;;;;;;0.20;0.20;;;;;;;13.14;71.17;100623.75;5030549;28;20105;-77
2022/11/09 07:21:57;;;;;;;0.10;0.10;;;;;;;13.13;71.20;100614.03;5033439;28;20038;-77
2022/11/09 07:24:23;;;;;;;1.65;1.55;;;;;;;13.12;71.25;100612.28;5037738;28;20413;-76
2022/11/09 07:26:49;;;;;;;0.10;0.10;;;;;;;13.18;70.93;100625.38;5037426;28;20029;-77
2022/11/09 07:29:16;;;;;;;0.30;0.30;;;;;;;13.18;70.79;100614.75;5033953;28;20036;-77
2022/11/09 07:31:42;;;;;;;0.10;0.10;;;;;;;13.21;70.68;100625.31;5048434;27;20552;-77
2022/11/09 07:34:08;;;;;;;0.15;0.15;;;;;;;13.20;70.99;100617.38;5034268;28;20018;-77
2022/11/09 07:36:35;;;;;;;0.10;0.10;;;;;;;13.21;71.11;100617.31;5028675;28;20086;-78
2022/11/09 07:39:02;;;;;;;0.00;0.00;;;;;;;13.23;70.96;100620.81;5042404;27;20025;-77
2022/11/09 07:41:28;;;;;;;0.10;0.10;;;;;;;13.25;70.92;100626.91;5043539;28;20037;-77
2022/11/09 07:43:54;;;;;;;0.10;0.10;;;;;;;13.27;70.69;100629.53;5039860;28;20044;-78
2022/11/09 07:46:20;;;;;;;0.10;0.10;;;;;;;13.27;70.70;100635.72;5045437;28;20033;-77
2022/11/09 07:48:46;;;;;;;0.10;0.10;;;;;;;13.29;70.87;100637.47;5043195;28;20156;-77
2022/11/09 07:51:12;;;;;;;0.20;0.20;;;;;;;13.33;70.57;100644.41;5043747;28;20187;-77
2022/11/09 07:53:38;;;;;;;0.10;0.10;;;;;;;13.42;70.23;100650.31;5039605;28;20067;-77
2022/11/09 07:56:05;;;;;;;0.05;0.05;;;;;;;13.44;70.33;100663.56;5039425;28;20182;-77
2022/11/09 07:58:33;;;;;;;0.10;0.10;;;;;;;13.42;70.38;100660.09;5044351;28;20109;-75
2022/11/09 08:00:59;;;;;;;0.10;0.10;;;;;;;13.48;70.56;100667.00;5035006;28;20065;-78
2022/11/09 08:03:25;;;;;;;0.10;0.10;;;;;;;13.45;70.17;100660.00;5042941;28;20036;-77
2022/11/09 08:05:51;;;;;;;0.68;0.68;;;;;;;13.53;69.73;100663.28;5031316;28;20037;-77
2022/11/09 08:08:17;;;;;;;0.10;0.10;;;;;;;13.55;70.13;100666.72;5036739;28;20048;-77
2022/11/09 08:10:50;;;;;;;2.22;1.55;;;;;;;13.58;70.05;100671.06;5042326;28;20029;-78
2022/11/09 08:13:17;;;;;;;0.17;0.17;;;;;;;13.58;69.54;100673.72;5031044;28;20033;-78
2022/11/09 08:15:44;;;;;;;0.13;0.13;;;;;;;13.62;69.94;100667.41;5037492;28;20044;-77
2022/11/09 08:18:13;;;;;;;0.82;0.82;;;;;;;13.59;69.70;100676.38;5027999;28;20025;-77
2022/11/09 08:20:39;;;;;;;0.10;0.10;;;;;;;13.70;69.93;100680.44;5031543;27;20488;-77
2022/11/09 08:23:06;;;;;;;0.10;0.10;;;;;;;13.76;69.88;100674.88;5036740;28;20021;-77
2022/11/09 08:25:34;;;;;;;0.10;0.10;;;;;;;13.85;69.49;100682.53;5044943;28;20041;-78
2022/11/09 08:28:00;;;;;;;0.10;0.10;;;;;;;13.95;69.17;100679.53;5036928;27;20381;-77
2022/11/09 08:30:26;;;;;;;0.10;0.10;;;;;;;14.06;69.08;100693.34;5033322;28;20067;-78
2022/11/09 08:32:53;;;;;;;0.73;0.73;;;;;;;14.14;68.65;100683.25;5035834;28;20025;-78
2022/11/09 08:35:22;;;;;;;0.28;0.28;;;;;;;14.17;68.41;100696.47;5038523;28;20060;-77
2022/11/09 08:37:50;;;;;;;0.55;0.50;;;;;;;14.31;68.11;100687.09;5032825;27;20040;-77
2022/11/09 08:40:19;;;;;;;0.10;0.10;;;;;;;14.36;67.88;100691.28;5032933;28;20428;-78
2022/11/09 08:42:45;;;;;;;0.10;0.10;;;;;;;14.37;67.81;100692.19;5030339;28;20078;-77
2022/11/09 08:45:11;;;;;;;0.10;0.10;;;;;;;14.45;67.37;100706.06;5029627;28;20033;-78
2022/11/09 08:47:38;;;;;;;0.10;0.10;;;;;;;14.48;67.23;100697.97;5041785;28;20056;-78
2022/11/09 08:50:06;;;;;;;0.10;0.10;;;;;;;14.42;67.26;100694.66;5034765;28;20056;-79
2022/11/09 08:52:33;;;;;;;0.08;0.08;;;;;;;14.49;67.07;100702.38;5032125;28;20028;-78
2022/11/09 08:54:59;;;;;;;0.10;0.10;;;;;;;14.48;66.52;100702.41;5032044;27;20082;-77
2022/11/09 08:57:25;;;;;;;0.10;0.10;;;;;;;14.44;66.46;100707.00;5031649;28;20037;-76
2022/11/09 08:59:51;;;;;;;0.63;0.63;;;;;;;14.53;66.42;100708.47;5036186;28;20037;-77
2022/11/09 09:02:17;;;;;;;0.10;0.10;;;;;;;14.51;66.38;100700.50;5028146;27;20034;-77
2022/11/09 09:04:44;;;;;;;0.22;0.22;;;;;;;14.52;66.55;100707.56;5024036;28;20175;-77
2022/11/09 09:07:11;;;;;;;0.10;0.10;;;;;;;14.53;66.54;100709.31;5030120;28;20518;-77
2022/11/09 09:09:37;;;;;;;0.30;0.30;;;;;;;14.49;66.30;100707.72;5035992;28;20062;-77
2022/11/09 09:12:05;;;;;;;0.10;0.10;;;;;;;14.57;66.10;100710.06;5026814;28;20025;-77
2022/11/09 09:14:31;;;;;;;0.10;0.10;;;;;;;14.61;66.09;100705.50;5031149;27;20033;-76
2022/11/09 09:16:57;;;;;;;0.90;0.90;;;;;;;14.56;66.07;100698.50;5024559;28;20030;-78
2022/11/09 09:19:23;;;;;;;0.10;0.10;;;;;;;14.60;66.14;100709.94;5030564;28;20048;-77
2022/11/09 09:21:50;;;;;;;0.10;0.10;;;;;;;14.66;66.06;100692.88;5030224;28;20029;-76
2022/11/09 09:24:16;;;;;;;0.75;0.75;;;;;;;14.67;65.68;100699.94;5030416;28;20038;-77
2022/11/09 09:26:43;;;;;;;0.10;0.10;;;;;;;14.77;65.85;100706.66;5030003;28;20074;-77
2022/11/09 09:29:10;;;;;;;0.10;0.10;;;;;;;14.83;65.54;100709.06;5030083;28;20025;-77
2022/11/09 09:31:36;;;;;;;0.30;0.30;;;;;;;14.90;65.29;100704.34;5036891;28;20029;-76
2022/11/09 09:34:02;;;;;;;0.10;0.10;;;;;;;14.95;65.26;100710.34;5035907;28;20021;-77
2022/11/09 09:36:29;;;;;;;0.20;0.20;;;;;;;14.96;64.80;100705.91;5029381;28;20044;-77
2022/11/09 09:38:55;;;;;;;1.17;0.43;;;;;;;15.03;65.10;100707.41;5029768;28;20048;-78
2022/11/09 09:41:41;;;;;;;0.10;0.10;;;;;;;14.99;64.86;100703.09;5029432;28;20041;-78
2022/11/09 09:44:45;;;;;;;0.10;0.10;;;;;;;15.26;64.28;100721.59;5029539;28;20560;-78
2022/11/09 09:50:00;;;;;;;2.20;1.20;;;;;;;15.22;64.03;100717.31;5097144;27;20742;-77
2022/11/09 09:52:52;;;;;;;0.32;0.32;;;;;;;15.29;63.61;100718.78;5090217;28;20531;-77
2022/11/09 09:55:29;;;;;;;0.10;0.10;;;;;;;15.26;64.17;100729.59;5089076;28;20554;-76
2022/11/09 09:58:05;;;;;;;0.10;0.10;;;;;;;15.23;63.81;100732.38;5089572;28;20016;-76
2022/11/09 10:00:32;;;;;;;0.10;0.10;;;;;;;15.28;63.41;100736.63;5089016;28;20044;-77
2022/11/09 10:02:59;;;;;;;0.10;0.10;;;;;;;15.25;63.23;100743.88;5089360;28;20093;-78
2022/11/09 10:05:38;;;;;;;0.20;0.20;;;;;;;15.33;63.00;100747.09;5089359;28;20044;-78
2022/11/09 10:08:13;;;;;;;0.20;0.20;;;;;;;15.44;63.07;100739.50;5088210;28;20466;-76
2022/11/09 10:13:43;;;;;;;0.10;0.10;;;;;;;15.39;62.05;100757.53;5054768;28;20049;-77
2022/11/09 10:21:50;;;;;;;0.10;0.10;;;;;;;15.44;62.38;100760.88;5095976;27;20363;-77
2022/11/09 10:26:57;;;;;;;0.10;0.10;;;;;;;15.25;61.82;100760.75;5106258;27;1174122;-77
2022/11/09 10:29:45;;;;;;;0.10;0.10;;;;;;;15.27;61.80;100758.03;5124958;28;20031;-78
2022/11/09 10:32:15;;;;;;;0.30;0.30;;;;;;;15.28;61.70;100757.09;5127345;28;20100;-77
2022/11/09 10:34:51;;;;;;;0.30;0.30;;;;;;;15.27;62.68;100752.69;5125213;28;20072;-78
2022/11/09 10:40:12;;;;;;;3.42;0.85;;;;;;;15.33;63.50;100753.31;5085432;27;20397;-78
2022/11/09 10:42:41;;;;;;;0.10;0.10;;;;;;;15.23;63.61;100757.28;5066917;28;20039;-78
2022/11/09 10:45:36;;;;;;;0.10;0.10;;;;;;;15.16;64.18;100751.31;5073428;28;20032;-78
2022/11/09 10:48:04;;;;;;;0.10;0.10;;;;;;;15.04;64.80;100746.47;5068015;28;20040;-78
2022/11/09 10:50:52;;;;;;;0.10;0.10;;;;;;;14.93;64.45;100748.69;5070690;28;20033;-78
2022/11/09 10:53:24;;;;;;;18.40;1.40;;;;;;;14.91;64.50;100755.91;5068886;28;20025;-78
2022/11/09 10:56:13;;;;;;;0.20;0.20;;;;;;;15.01;64.11;100762.63;5066240;28;20489;-77
2022/11/09 11:01:36;;;;;;;0.10;0.10;;;;;;;15.05;64.14;100748.22;5068046;27;20407;-77
2022/11/09 11:04:20;;;;;;;0.10;0.10;;;;;;;15.16;64.05;100753.13;5047629;27;20032;-78
2022/11/09 11:06:46;;;;;;;0.15;0.15;;;;;;;15.18;63.52;100761.94;5051584;27;20030;-78
2022/11/09 11:12:04;;;;;;;0.68;0.68;;;;;;;15.20;62.65;100752.94;5103470;27;20415;-78
2022/11/09 11:14:33;;;;;;;0.10;0.10;;;;;;;15.05;62.99;100753.56;5110483;28;20093;-76
2022/11/09 11:17:00;;;;;;;0.10;0.10;;;;;;;14.96;62.87;100743.25;5097976;28;20394;-79
2022/11/09 11:24:54;;;;;;;0.20;0.20;;;;;;;14.51;65.64;100764.47;5047452;27;20401;-79
2022/11/09 11:27:36;;;;;;;0.00;0.00;;;;;;;14.38;65.77;100749.88;5045764;28;20037;-78
2022/11/09 11:32:47;;;;;;;0.10;0.10;;;;;;;14.14;65.27;100773.81;5099898;27;20393;-77
2022/11/09 11:35:20;;;;;;;0.10;0.10;;;;;;;14.12;66.37;100767.72;5087918;28;20032;-77
2022/11/09 11:40:44;;;;;;;0.32;0.32;;;;;;;14.06;65.51;100783.91;5061069;28;20414;-77
2022/11/09 11:43:38;;;;;;;0.10;0.10;;;;;;;14.24;66.51;100779.69;5045568;28;20037;-77
2022/11/09 11:46:26;;;;;;;0.10;0.10;;;;;;;14.40;64.86;100774.69;5046260;28;20038;-78
2022/11/09 11:49:15;;;;;;;0.10;0.10;;;;;;;14.45;63.87;100786.03;5028531;28;20076;-78
2022/11/09 11:54:36;;;;;;;0.10;0.10;;;;;;;14.59;64.20;100776.66;5102746;27;20405;-76
2022/11/09 12:08:42;;;;;;;0.93;0.85;;;;;;;15.16;64.50;100787.81;5074059;28;20395;-78
2022/11/09 12:11:40;;;;;;;0.10;0.10;;;;;;;15.26;64.54;100777.66;5067820;28;20028;-77
2022/11/09 12:14:31;;;;;;;0.45;0.45;;;;;;;15.23;64.06;100769.75;5067351;28;20020;-77
2022/11/09 12:17:27;;;;;;;0.52;0.52;;;;;;;15.35;64.01;100761.25;5066510;28;20032;-77
2022/11/09 12:20:19;;;;;;;0.10;0.10;;;;;;;15.41;63.31;100766.31;5066781;28;20040;-77
2022/11/09 12:23:24;;;;;;;0.50;0.50;;;;;;;15.31;63.79;100781.00;5068070;28;20146;-77
2022/11/09 12:26:11;;;;;;;0.10;0.10;;;;;;;15.33;63.82;100768.47;5066087;28;20105;-77